sensor_id;sensor_type;location;lat;lon;timestamp;temperature;humidity
26342;DHT22;14054;50.108;8.640;2024-01-27T00:01:31;6.90;99.90
26342;DHT22;14054;50.108;8.640;2024-01-27T00:03:57;6.90;99.90
26342;DHT22;14054;50.108;8.640;2024-01-27T00:06:22;6.80;99.90
26342;DHT22;14054;50.108;8.640;2024-01-27T00:08:48;6.80;99.90
26342;DHT22;14054;50.108;8.640;2024-01-27T00:11:13;6.80;99.90
26342;DHT22;14054;50.108;8.640;2024-01-27T00:13:39;6.70;99.90
26342;DHT22;14054;50.108;8.640;2024-01-27T00:16:04;6.70;99.90
26342;DHT22;14054;50.108;8.640;2024-01-27T00:18:30;6.60;99.90
26342;DHT22;14054;50.108;8.640;2024-01-27T00:20:55;6.60;99.90
26342;DHT22;14054;50.108;8.640;2024-01-27T00:23:21;6.60;99.90
26342;DHT22;14054;50.108;8.640;2024-01-27T00:28:12;6.70;99.90
26342;DHT22;14054;50.108;8.640;2024-01-27T00:30:38;6.40;99.90
26342;DHT22;14054;50.108;8.640;2024-01-27T00:35:30;6.40;99.90
26342;DHT22;14054;50.108;8.640;2024-01-27T00:37:55;6.30;99.90
26342;DHT22;14054;50.108;8.640;2024-01-27T00:42:48;6.30;99.90
26342;DHT22;14054;50.108;8.640;2024-01-27T00:45:13;6.10;99.90
26342;DHT22;14054;50.108;8.640;2024-01-27T00:50:05;6.10;99.90
26342;DHT22;14054;50.108;8.640;2024-01-27T00:52:31;6.10;99.90
26342;DHT22;14054;50.108;8.640;2024-01-27T00:54:56;6.00;99.90
26342;DHT22;14054;50.108;8.640;2024-01-27T00:57:22;6.00;99.90
26342;DHT22;14054;50.108;8.640;2024-01-27T00:59:47;6.00;99.90
26342;DHT22;14054;50.108;8.640;2024-01-27T01:02:13;6.00;99.90
26342;DHT22;14054;50.108;8.640;2024-01-27T01:04:38;5.90;99.90
26342;DHT22;14054;50.108;8.640;2024-01-27T01:07:04;5.90;99.90
26342;DHT22;14054;50.108;8.640;2024-01-27T01:09:29;5.80;99.90
26342;DHT22;14054;50.108;8.640;2024-01-27T01:11:55;5.80;99.90
26342;DHT22;14054;50.108;8.640;2024-01-27T01:14:20;5.80;99.90
26342;DHT22;14054;50.108;8.640;2024-01-27T01:16:46;5.80;99.90
26342;DHT22;14054;50.108;8.640;2024-01-27T01:19:11;5.70;99.90
26342;DHT22;14054;50.108;8.640;2024-01-27T01:24:03;5.70;99.90
26342;DHT22;14054;50.108;8.640;2024-01-27T01:26:28;5.70;99.90
26342;DHT22;14054;50.108;8.640;2024-01-27T01:28:54;5.70;99.90
26342;DHT22;14054;50.108;8.640;2024-01-27T01:31:19;5.70;99.90
26342;DHT22;14054;50.108;8.640;2024-01-27T01:33:45;5.60;99.90
26342;DHT22;14054;50.108;8.640;2024-01-27T01:36:10;5.60;99.90
26342;DHT22;14054;50.108;8.640;2024-01-27T01:38:36;5.60;99.90
26342;DHT22;14054;50.108;8.640;2024-01-27T01:41:01;5.60;99.90
26342;DHT22;14054;50.108;8.640;2024-01-27T01:43:27;5.60;99.90
26342;DHT22;14054;50.108;8.640;2024-01-27T01:45:52;5.50;99.90
26342;DHT22;14054;50.108;8.640;2024-01-27T01:48:21;5.50;99.90
26342;DHT22;14054;50.108;8.640;2024-01-27T01:50:47;5.50;99.90
26342;DHT22;14054;50.108;8.640;2024-01-27T01:53:13;5.50;99.90
26342;DHT22;14054;50.108;8.640;2024-01-27T01:55:39;5.40;99.90
26342;DHT22;14054;50.108;8.640;2024-01-27T01:58:05;5.40;99.90
26342;DHT22;14054;50.108;8.640;2024-01-27T02:00:31;5.40;99.90
26342;DHT22;14054;50.108;8.640;2024-01-27T02:02:57;5.40;99.90
26342;DHT22;14054;50.108;8.640;2024-01-27T02:05:22;5.40;99.90
26342;DHT22;14054;50.108;8.640;2024-01-27T02:07:48;5.30;99.90
26342;DHT22;14054;50.108;8.640;2024-01-27T02:10:15;5.30;99.90
26342;DHT22;14054;50.108;8.640;2024-01-27T02:12:44;5.20;99.90
26342;DHT22;14054;50.108;8.640;2024-01-27T02:15:11;5.20;99.90
26342;DHT22;14054;50.108;8.640;2024-01-27T02:17:40;5.20;99.90
26342;DHT22;14054;50.108;8.640;2024-01-27T02:20:07;5.20;99.90
26342;DHT22;14054;50.108;8.640;2024-01-27T02:22:35;5.10;99.90
26342;DHT22;14054;50.108;8.640;2024-01-27T02:25:02;5.10;99.90
26342;DHT22;14054;50.108;8.640;2024-01-27T02:27:27;5.10;99.90
26342;DHT22;14054;50.108;8.640;2024-01-27T02:29:53;5.10;99.90
26342;DHT22;14054;50.108;8.640;2024-01-27T02:32:18;5.00;99.90
26342;DHT22;14054;50.108;8.640;2024-01-27T02:34:44;4.90;99.90
26342;DHT22;14054;50.108;8.640;2024-01-27T02:37:09;4.90;99.90
26342;DHT22;14054;50.108;8.640;2024-01-27T02:39:35;4.90;99.90
26342;DHT22;14054;50.108;8.640;2024-01-27T02:42:01;4.90;99.90
26342;DHT22;14054;50.108;8.640;2024-01-27T02:44:27;4.90;99.90
26342;DHT22;14054;50.108;8.640;2024-01-27T02:46:54;4.90;99.90
26342;DHT22;14054;50.108;8.640;2024-01-27T02:49:20;4.80;99.90
26342;DHT22;14054;50.108;8.640;2024-01-27T02:51:45;4.80;99.90
26342;DHT22;14054;50.108;8.640;2024-01-27T02:54:11;4.80;99.90
26342;DHT22;14054;50.108;8.640;2024-01-27T02:56:36;4.80;99.90
26342;DHT22;14054;50.108;8.640;2024-01-27T02:59:02;4.80;99.90
26342;DHT22;14054;50.108;8.640;2024-01-27T03:01:27;4.70;99.90
26342;DHT22;14054;50.108;8.640;2024-01-27T03:03:53;4.70;99.90
26342;DHT22;14054;50.108;8.640;2024-01-27T03:06:18;4.70;99.90
26342;DHT22;14054;50.108;8.640;2024-01-27T03:08:44;4.70;99.90
26342;DHT22;14054;50.108;8.640;2024-01-27T03:11:09;4.70;99.90
26342;DHT22;14054;50.108;8.640;2024-01-27T03:13:35;4.60;99.90
26342;DHT22;14054;50.108;8.640;2024-01-27T03:16:00;4.60;99.90
26342;DHT22;14054;50.108;8.640;2024-01-27T03:18:26;4.60;99.90
26342;DHT22;14054;50.108;8.640;2024-01-27T03:20:51;4.50;99.90
26342;DHT22;14054;50.108;8.640;2024-01-27T03:23:17;4.50;99.90
26342;DHT22;14054;50.108;8.640;2024-01-27T03:25:42;4.50;99.90
26342;DHT22;14054;50.108;8.640;2024-01-27T03:28:08;4.40;99.90
26342;DHT22;14054;50.108;8.640;2024-01-27T03:30:33;4.40;99.90
26342;DHT22;14054;50.108;8.640;2024-01-27T03:32:59;4.40;99.90
26342;DHT22;14054;50.108;8.640;2024-01-27T03:35:24;4.30;99.90
26342;DHT22;14054;50.108;8.640;2024-01-27T03:37:50;4.30;99.90
26342;DHT22;14054;50.108;8.640;2024-01-27T03:40:17;4.20;99.90
26342;DHT22;14054;50.108;8.640;2024-01-27T03:42:42;4.20;99.90
26342;DHT22;14054;50.108;8.640;2024-01-27T03:45:08;4.10;99.90
26342;DHT22;14054;50.108;8.640;2024-01-27T03:47:34;4.10;99.90
26342;DHT22;14054;50.108;8.640;2024-01-27T03:49:59;4.00;99.90
26342;DHT22;14054;50.108;8.640;2024-01-27T03:52:25;4.00;99.90
26342;DHT22;14054;50.108;8.640;2024-01-27T03:54:50;4.00;99.90
26342;DHT22;14054;50.108;8.640;2024-01-27T03:57:16;3.90;99.90
26342;DHT22;14054;50.108;8.640;2024-01-27T03:59:41;3.90;99.90
26342;DHT22;14054;50.108;8.640;2024-01-27T04:02:07;3.80;99.90
26342;DHT22;14054;50.108;8.640;2024-01-27T04:04:32;3.90;99.90
26342;DHT22;14054;50.108;8.640;2024-01-27T04:06:58;3.80;99.90
26342;DHT22;14054;50.108;8.640;2024-01-27T04:09:26;3.80;99.90
26342;DHT22;14054;50.108;8.640;2024-01-27T04:11:51;3.80;99.90
26342;DHT22;14054;50.108;8.640;2024-01-27T04:14:17;3.80;99.90
26342;DHT22;14054;50.108;8.640;2024-01-27T04:16:42;3.70;99.90
26342;DHT22;14054;50.108;8.640;2024-01-27T04:19:08;3.70;99.90
26342;DHT22;14054;50.108;8.640;2024-01-27T04:21:33;3.70;99.90
26342;DHT22;14054;50.108;8.640;2024-01-27T04:23:59;3.70;99.90
26342;DHT22;14054;50.108;8.640;2024-01-27T04:26:24;3.70;99.90
26342;DHT22;14054;50.108;8.640;2024-01-27T04:28:49;3.60;99.90
26342;DHT22;14054;50.108;8.640;2024-01-27T04:31:15;3.60;99.90
26342;DHT22;14054;50.108;8.640;2024-01-27T04:33:40;3.50;99.90
26342;DHT22;14054;50.108;8.640;2024-01-27T04:36:06;3.50;99.90
26342;DHT22;14054;50.108;8.640;2024-01-27T04:38:35;3.50;99.90
26342;DHT22;14054;50.108;8.640;2024-01-27T04:41:01;3.50;99.90
26342;DHT22;14054;50.108;8.640;2024-01-27T04:43:27;3.50;99.90
26342;DHT22;14054;50.108;8.640;2024-01-27T04:45:55;3.40;99.90
26342;DHT22;14054;50.108;8.640;2024-01-27T04:48:21;3.40;99.90
26342;DHT22;14054;50.108;8.640;2024-01-27T04:50:46;3.40;99.90
26342;DHT22;14054;50.108;8.640;2024-01-27T04:53:12;3.40;99.90
26342;DHT22;14054;50.108;8.640;2024-01-27T04:55:37;3.40;99.90
26342;DHT22;14054;50.108;8.640;2024-01-27T04:58:04;3.40;99.90
26342;DHT22;14054;50.108;8.640;2024-01-27T05:00:29;3.30;99.90
26342;DHT22;14054;50.108;8.640;2024-01-27T05:02:55;3.30;99.90
26342;DHT22;14054;50.108;8.640;2024-01-27T05:05:22;3.30;99.90
26342;DHT22;14054;50.108;8.640;2024-01-27T05:07:48;3.20;99.90
26342;DHT22;14054;50.108;8.640;2024-01-27T05:10:15;3.30;99.90
26342;DHT22;14054;50.108;8.640;2024-01-27T05:12:41;3.20;99.90
26342;DHT22;14054;50.108;8.640;2024-01-27T05:15:07;3.20;99.90
26342;DHT22;14054;50.108;8.640;2024-01-27T05:17:33;3.20;99.90
26342;DHT22;14054;50.108;8.640;2024-01-27T05:19:59;3.20;99.90
26342;DHT22;14054;50.108;8.640;2024-01-27T05:22:24;3.20;99.90
26342;DHT22;14054;50.108;8.640;2024-01-27T05:24:50;3.20;99.90
26342;DHT22;14054;50.108;8.640;2024-01-27T05:27:15;3.20;99.90
26342;DHT22;14054;50.108;8.640;2024-01-27T05:29:41;3.10;99.90
26342;DHT22;14054;50.108;8.640;2024-01-27T05:32:06;3.20;99.90
26342;DHT22;14054;50.108;8.640;2024-01-27T05:34:32;3.10;99.90
26342;DHT22;14054;50.108;8.640;2024-01-27T05:36:57;3.10;99.90
26342;DHT22;14054;50.108;8.640;2024-01-27T05:39:23;3.10;99.90
26342;DHT22;14054;50.108;8.640;2024-01-27T05:41:49;3.00;99.90
26342;DHT22;14054;50.108;8.640;2024-01-27T05:44:14;3.00;99.90
26342;DHT22;14054;50.108;8.640;2024-01-27T05:46:40;3.00;99.90
26342;DHT22;14054;50.108;8.640;2024-01-27T05:49:05;3.00;99.90
26342;DHT22;14054;50.108;8.640;2024-01-27T05:51:31;2.90;99.90
26342;DHT22;14054;50.108;8.640;2024-01-27T05:53:56;2.90;99.90
26342;DHT22;14054;50.108;8.640;2024-01-27T05:56:22;2.90;99.90
26342;DHT22;14054;50.108;8.640;2024-01-27T05:58:48;2.90;99.90
26342;DHT22;14054;50.108;8.640;2024-01-27T06:01:14;2.80;99.90
26342;DHT22;14054;50.108;8.640;2024-01-27T06:03:43;2.80;99.90
26342;DHT22;14054;50.108;8.640;2024-01-27T06:06:08;2.80;99.90
26342;DHT22;14054;50.108;8.640;2024-01-27T06:08:34;2.80;99.90
26342;DHT22;14054;50.108;8.640;2024-01-27T06:10:59;2.80;99.90
26342;DHT22;14054;50.108;8.640;2024-01-27T06:13:25;2.80;99.90
26342;DHT22;14054;50.108;8.640;2024-01-27T06:15:50;2.80;99.90
26342;DHT22;14054;50.108;8.640;2024-01-27T06:18:16;2.80;99.90
26342;DHT22;14054;50.108;8.640;2024-01-27T06:20:42;2.80;99.90
26342;DHT22;14054;50.108;8.640;2024-01-27T06:23:08;2.70;99.90
26342;DHT22;14054;50.108;8.640;2024-01-27T06:25:33;2.70;99.90
26342;DHT22;14054;50.108;8.640;2024-01-27T06:27:59;2.70;99.90
26342;DHT22;14054;50.108;8.640;2024-01-27T06:30:25;2.60;99.90
26342;DHT22;14054;50.108;8.640;2024-01-27T06:32:50;2.60;99.90
26342;DHT22;14054;50.108;8.640;2024-01-27T06:35:16;2.60;99.90
26342;DHT22;14054;50.108;8.640;2024-01-27T06:37:41;2.60;99.90
26342;DHT22;14054;50.108;8.640;2024-01-27T06:40:07;2.70;99.90
26342;DHT22;14054;50.108;8.640;2024-01-27T06:42:34;2.60;99.90
26342;DHT22;14054;50.108;8.640;2024-01-27T06:45:00;2.50;99.90
26342;DHT22;14054;50.108;8.640;2024-01-27T06:47:25;2.50;99.90
26342;DHT22;14054;50.108;8.640;2024-01-27T06:49:50;2.50;99.90
26342;DHT22;14054;50.108;8.640;2024-01-27T06:52:16;2.50;99.90
26342;DHT22;14054;50.108;8.640;2024-01-27T06:54:41;2.40;99.90
26342;DHT22;14054;50.108;8.640;2024-01-27T06:57:18;2.40;99.90
26342;DHT22;14054;50.108;8.640;2024-01-27T06:59:50;2.40;99.90
26342;DHT22;14054;50.108;8.640;2024-01-27T07:02:18;2.40;99.90
26342;DHT22;14054;50.108;8.640;2024-01-27T07:04:43;2.40;99.90
26342;DHT22;14054;50.108;8.640;2024-01-27T07:07:09;2.40;99.90
26342;DHT22;14054;50.108;8.640;2024-01-27T07:09:34;2.40;99.90
26342;DHT22;14054;50.108;8.640;2024-01-27T07:12:00;2.40;99.90
26342;DHT22;14054;50.108;8.640;2024-01-27T07:14:25;2.40;99.90
26342;DHT22;14054;50.108;8.640;2024-01-27T07:16:51;2.40;99.90
26342;DHT22;14054;50.108;8.640;2024-01-27T07:19:16;2.40;99.90
26342;DHT22;14054;50.108;8.640;2024-01-27T07:21:42;2.40;99.90
26342;DHT22;14054;50.108;8.640;2024-01-27T07:24:07;2.30;99.90
26342;DHT22;14054;50.108;8.640;2024-01-27T07:26:33;2.30;99.90
26342;DHT22;14054;50.108;8.640;2024-01-27T07:28:58;2.40;99.90
26342;DHT22;14054;50.108;8.640;2024-01-27T07:31:24;2.40;99.90
26342;DHT22;14054;50.108;8.640;2024-01-27T07:33:51;2.40;99.90
26342;DHT22;14054;50.108;8.640;2024-01-27T07:36:17;3.30;99.90
26342;DHT22;14054;50.108;8.640;2024-01-27T07:38:42;3.30;99.90
26342;DHT22;14054;50.108;8.640;2024-01-27T07:41:08;3.40;99.90
26342;DHT22;14054;50.108;8.640;2024-01-27T07:43:33;3.60;99.90
26342;DHT22;14054;50.108;8.640;2024-01-27T07:45:59;3.70;99.90
26342;DHT22;14054;50.108;8.640;2024-01-27T07:48:24;3.80;99.90
26342;DHT22;14054;50.108;8.640;2024-01-27T07:50:50;3.40;99.90
26342;DHT22;14054;50.108;8.640;2024-01-27T07:53:16;3.30;99.90
26342;DHT22;14054;50.108;8.640;2024-01-27T07:55:42;3.30;99.90
26342;DHT22;14054;50.108;8.640;2024-01-27T07:58:08;3.20;99.90
26342;DHT22;14054;50.108;8.640;2024-01-27T08:00:33;3.30;99.90
26342;DHT22;14054;50.108;8.640;2024-01-27T08:02:59;3.30;99.90
26342;DHT22;14054;50.108;8.640;2024-01-27T08:05:24;3.30;99.90
26342;DHT22;14054;50.108;8.640;2024-01-27T08:07:50;3.30;99.90
26342;DHT22;14054;50.108;8.640;2024-01-27T08:10:15;3.30;99.90
26342;DHT22;14054;50.108;8.640;2024-01-27T08:12:41;3.50;99.90
26342;DHT22;14054;50.108;8.640;2024-01-27T08:15:06;3.70;99.90
26342;DHT22;14054;50.108;8.640;2024-01-27T08:17:32;3.70;99.90
26342;DHT22;14054;50.108;8.640;2024-01-27T08:19:58;3.90;99.90
26342;DHT22;14054;50.108;8.640;2024-01-27T08:22:24;4.00;99.90
26342;DHT22;14054;50.108;8.640;2024-01-27T08:24:50;4.10;99.90
26342;DHT22;14054;50.108;8.640;2024-01-27T08:27:15;4.20;99.90
26342;DHT22;14054;50.108;8.640;2024-01-27T08:29:41;4.30;99.90
26342;DHT22;14054;50.108;8.640;2024-01-27T08:32:06;4.40;99.90
26342;DHT22;14054;50.108;8.640;2024-01-27T08:34:32;4.20;99.90
26342;DHT22;14054;50.108;8.640;2024-01-27T08:37:00;4.30;99.90
26342;DHT22;14054;50.108;8.640;2024-01-27T08:39:26;4.10;99.90
26342;DHT22;14054;50.108;8.640;2024-01-27T08:41:51;4.10;99.90
26342;DHT22;14054;50.108;8.640;2024-01-27T08:44:17;4.20;99.90
26342;DHT22;14054;50.108;8.640;2024-01-27T08:46:42;4.20;99.90
26342;DHT22;14054;50.108;8.640;2024-01-27T08:49:07;4.30;99.90
26342;DHT22;14054;50.108;8.640;2024-01-27T08:51:33;4.30;99.90
26342;DHT22;14054;50.108;8.640;2024-01-27T08:53:59;4.30;99.90
26342;DHT22;14054;50.108;8.640;2024-01-27T08:56:25;4.40;99.90
26342;DHT22;14054;50.108;8.640;2024-01-27T08:58:50;4.70;99.90
26342;DHT22;14054;50.108;8.640;2024-01-27T09:01:17;4.80;99.90
26342;DHT22;14054;50.108;8.640;2024-01-27T09:03:43;5.00;99.90
26342;DHT22;14054;50.108;8.640;2024-01-27T09:06:09;5.10;99.90
26342;DHT22;14054;50.108;8.640;2024-01-27T09:08:35;5.30;99.90
26342;DHT22;14054;50.108;8.640;2024-01-27T09:11:04;5.40;99.90
26342;DHT22;14054;50.108;8.640;2024-01-27T09:13:30;5.50;99.90
26342;DHT22;14054;50.108;8.640;2024-01-27T09:15:59;5.60;99.90
26342;DHT22;14054;50.108;8.640;2024-01-27T09:18:25;5.60;99.90
26342;DHT22;14054;50.108;8.640;2024-01-27T09:20:51;5.90;99.90
26342;DHT22;14054;50.108;8.640;2024-01-27T09:23:17;5.90;99.90
26342;DHT22;14054;50.108;8.640;2024-01-27T09:25:42;5.90;99.90
26342;DHT22;14054;50.108;8.640;2024-01-27T09:28:07;5.90;99.90
26342;DHT22;14054;50.108;8.640;2024-01-27T09:30:33;5.90;99.90
26342;DHT22;14054;50.108;8.640;2024-01-27T09:32:58;5.90;99.90
26342;DHT22;14054;50.108;8.640;2024-01-27T09:35:24;5.90;99.90
26342;DHT22;14054;50.108;8.640;2024-01-27T09:37:49;6.00;99.90
26342;DHT22;14054;50.108;8.640;2024-01-27T09:40:15;6.10;99.90
26342;DHT22;14054;50.108;8.640;2024-01-27T09:42:43;6.10;99.90
26342;DHT22;14054;50.108;8.640;2024-01-27T09:45:13;6.20;99.90
26342;DHT22;14054;50.108;8.640;2024-01-27T09:47:39;6.20;99.90
26342;DHT22;14054;50.108;8.640;2024-01-27T09:50:06;6.20;99.90
26342;DHT22;14054;50.108;8.640;2024-01-27T09:52:33;6.50;99.90
26342;DHT22;14054;50.108;8.640;2024-01-27T09:55:00;6.40;99.90
26342;DHT22;14054;50.108;8.640;2024-01-27T09:57:25;6.50;99.90
26342;DHT22;14054;50.108;8.640;2024-01-27T09:59:51;6.60;99.90
26342;DHT22;14054;50.108;8.640;2024-01-27T10:02:18;6.40;99.90
26342;DHT22;14054;50.108;8.640;2024-01-27T10:04:44;6.50;99.90
26342;DHT22;14054;50.108;8.640;2024-01-27T10:07:10;6.50;99.90
26342;DHT22;14054;50.108;8.640;2024-01-27T10:09:36;6.50;99.90
26342;DHT22;14054;50.108;8.640;2024-01-27T10:12:02;6.70;99.90
26342;DHT22;14054;50.108;8.640;2024-01-27T10:14:40;6.80;99.90
26342;DHT22;14054;50.108;8.640;2024-01-27T10:17:10;6.80;99.90
26342;DHT22;14054;50.108;8.640;2024-01-27T10:19:35;7.10;99.90
26342;DHT22;14054;50.108;8.640;2024-01-27T10:22:01;7.10;99.90
26342;DHT22;14054;50.108;8.640;2024-01-27T10:24:31;7.20;99.90
26342;DHT22;14054;50.108;8.640;2024-01-27T10:27:04;7.10;99.90
26342;DHT22;14054;50.108;8.640;2024-01-27T10:29:30;7.40;99.90
26342;DHT22;14054;50.108;8.640;2024-01-27T10:32:06;7.60;99.90
26342;DHT22;14054;50.108;8.640;2024-01-27T10:34:32;7.60;99.90
26342;DHT22;14054;50.108;8.640;2024-01-27T10:36:57;7.70;99.90
26342;DHT22;14054;50.108;8.640;2024-01-27T10:39:23;7.90;99.90
26342;DHT22;14054;50.108;8.640;2024-01-27T10:41:50;8.00;99.90
26342;DHT22;14054;50.108;8.640;2024-01-27T10:44:17;8.10;99.90
26342;DHT22;14054;50.108;8.640;2024-01-27T10:46:44;8.10;99.90
26342;DHT22;14054;50.108;8.640;2024-01-27T10:49:12;8.30;99.90
26342;DHT22;14054;50.108;8.640;2024-01-27T10:51:45;8.30;99.90
26342;DHT22;14054;50.108;8.640;2024-01-27T10:54:15;8.40;99.90
26342;DHT22;14054;50.108;8.640;2024-01-27T10:56:43;8.40;99.90
26342;DHT22;14054;50.108;8.640;2024-01-27T10:59:11;8.60;99.90
26342;DHT22;14054;50.108;8.640;2024-01-27T11:01:41;8.70;99.90
26342;DHT22;14054;50.108;8.640;2024-01-27T11:04:06;8.70;99.90
26342;DHT22;14054;50.108;8.640;2024-01-27T11:06:34;8.70;99.90
26342;DHT22;14054;50.108;8.640;2024-01-27T11:09:02;8.70;99.90
26342;DHT22;14054;50.108;8.640;2024-01-27T11:11:30;8.80;99.90
26342;DHT22;14054;50.108;8.640;2024-01-27T11:13:56;8.80;99.90
26342;DHT22;14054;50.108;8.640;2024-01-27T11:16:23;9.10;99.90
26342;DHT22;14054;50.108;8.640;2024-01-27T11:18:49;9.30;99.90
26342;DHT22;14054;50.108;8.640;2024-01-27T11:21:15;9.30;99.90
26342;DHT22;14054;50.108;8.640;2024-01-27T11:23:42;9.50;99.90
26342;DHT22;14054;50.108;8.640;2024-01-27T11:26:08;10.80;98.10
26342;DHT22;14054;50.108;8.640;2024-01-27T11:28:35;11.50;98.30
26342;DHT22;14054;50.108;8.640;2024-01-27T11:31:08;13.00;95.20
26342;DHT22;14054;50.108;8.640;2024-01-27T11:33:41;13.60;91.40
26342;DHT22;14054;50.108;8.640;2024-01-27T11:36:14;13.90;87.00
26342;DHT22;14054;50.108;8.640;2024-01-27T11:38:42;14.50;84.00
26342;DHT22;14054;50.108;8.640;2024-01-27T11:41:08;14.80;81.10
26342;DHT22;14054;50.108;8.640;2024-01-27T11:43:33;14.80;77.70
26342;DHT22;14054;50.108;8.640;2024-01-27T11:46:00;15.40;76.30
26342;DHT22;14054;50.108;8.640;2024-01-27T11:48:26;15.70;72.80
26342;DHT22;14054;50.108;8.640;2024-01-27T11:51:06;15.50;72.10
26342;DHT22;14054;50.108;8.640;2024-01-27T11:53:33;15.90;71.10
26342;DHT22;14054;50.108;8.640;2024-01-27T11:55:59;16.00;69.00
26342;DHT22;14054;50.108;8.640;2024-01-27T11:58:25;15.90;67.80
26342;DHT22;14054;50.108;8.640;2024-01-27T12:00:52;15.70;67.90
26342;DHT22;14054;50.108;8.640;2024-01-27T12:03:17;15.80;67.60
26342;DHT22;14054;50.108;8.640;2024-01-27T12:05:43;15.70;67.70
26342;DHT22;14054;50.108;8.640;2024-01-27T12:08:08;15.30;67.60
26342;DHT22;14054;50.108;8.640;2024-01-27T12:10:34;13.40;69.80
26342;DHT22;14054;50.108;8.640;2024-01-27T12:13:00;11.80;75.70
26342;DHT22;14054;50.108;8.640;2024-01-27T12:15:26;9.90;81.70
26342;DHT22;14054;50.108;8.640;2024-01-27T12:17:52;9.50;83.90
26342;DHT22;14054;50.108;8.640;2024-01-27T12:20:18;9.10;86.90
26342;DHT22;14054;50.108;8.640;2024-01-27T12:22:43;8.90;89.10
26342;DHT22;14054;50.108;8.640;2024-01-27T12:25:11;8.70;90.20
26342;DHT22;14054;50.108;8.640;2024-01-27T12:27:38;8.40;90.90
26342;DHT22;14054;50.108;8.640;2024-01-27T12:30:04;8.30;91.40
26342;DHT22;14054;50.108;8.640;2024-01-27T12:32:31;8.20;91.80
26342;DHT22;14054;50.108;8.640;2024-01-27T12:34:58;8.00;92.20
26342;DHT22;14054;50.108;8.640;2024-01-27T12:37:26;8.00;92.30
26342;DHT22;14054;50.108;8.640;2024-01-27T12:39:53;7.80;92.60
26342;DHT22;14054;50.108;8.640;2024-01-27T12:42:18;7.80;92.70
26342;DHT22;14054;50.108;8.640;2024-01-27T12:44:44;7.90;93.00
26342;DHT22;14054;50.108;8.640;2024-01-27T12:47:10;7.80;93.00
26342;DHT22;14054;50.108;8.640;2024-01-27T12:49:36;7.90;93.10
26342;DHT22;14054;50.108;8.640;2024-01-27T12:52:02;7.90;93.30
26342;DHT22;14054;50.108;8.640;2024-01-27T12:54:27;8.00;93.60
26342;DHT22;14054;50.108;8.640;2024-01-27T12:56:53;8.10;93.60
26342;DHT22;14054;50.108;8.640;2024-01-27T12:59:18;8.20;93.50
26342;DHT22;14054;50.108;8.640;2024-01-27T13:01:44;8.20;93.50
26342;DHT22;14054;50.108;8.640;2024-01-27T13:04:09;8.30;93.40
26342;DHT22;14054;50.108;8.640;2024-01-27T13:06:35;8.30;92.90
26342;DHT22;14054;50.108;8.640;2024-01-27T13:09:00;8.50;93.20
26342;DHT22;14054;50.108;8.640;2024-01-27T13:11:26;8.70;93.10
26342;DHT22;14054;50.108;8.640;2024-01-27T13:13:51;8.50;93.30
26342;DHT22;14054;50.108;8.640;2024-01-27T13:16:17;8.10;94.20
26342;DHT22;14054;50.108;8.640;2024-01-27T13:18:43;9.40;92.40
26342;DHT22;14054;50.108;8.640;2024-01-27T13:21:09;11.90;89.10
26342;DHT22;14054;50.108;8.640;2024-01-27T13:23:35;14.60;77.10
26342;DHT22;14054;50.108;8.640;2024-01-27T13:26:01;16.00;68.90
26342;DHT22;14054;50.108;8.640;2024-01-27T13:28:26;18.00;61.40
26342;DHT22;14054;50.108;8.640;2024-01-27T13:30:52;17.90;59.40
26342;DHT22;14054;50.108;8.640;2024-01-27T13:33:17;18.50;56.30
26342;DHT22;14054;50.108;8.640;2024-01-27T13:35:43;19.10;54.00
26342;DHT22;14054;50.108;8.640;2024-01-27T13:38:12;19.20;53.30
26342;DHT22;14054;50.108;8.640;2024-01-27T13:40:38;19.10;52.50
26342;DHT22;14054;50.108;8.640;2024-01-27T13:43:04;16.90;54.00
26342;DHT22;14054;50.108;8.640;2024-01-27T13:45:30;16.20;59.60
26342;DHT22;14054;50.108;8.640;2024-01-27T13:47:56;16.30;58.40
26342;DHT22;14054;50.108;8.640;2024-01-27T13:50:22;17.60;55.90
26342;DHT22;14054;50.108;8.640;2024-01-27T13:55:15;19.50;55.30
26342;DHT22;14054;50.108;8.640;2024-01-27T13:57:40;19.50;49.20
26342;DHT22;14054;50.108;8.640;2024-01-27T14:00:06;17.30;53.90
26342;DHT22;14054;50.108;8.640;2024-01-27T14:02:32;17.90;51.80
26342;DHT22;14054;50.108;8.640;2024-01-27T14:04:57;16.10;56.20
26342;DHT22;14054;50.108;8.640;2024-01-27T14:07:23;18.40;52.00
26342;DHT22;14054;50.108;8.640;2024-01-27T14:09:49;19.90;48.50
26342;DHT22;14054;50.108;8.640;2024-01-27T14:12:14;20.40;45.80
26342;DHT22;14054;50.108;8.640;2024-01-27T14:14:41;20.80;87.00
26342;DHT22;14054;50.108;8.640;2024-01-27T14:17:08;20.50;43.70
26342;DHT22;14054;50.108;8.640;2024-01-27T14:19:34;20.20;43.60
26342;DHT22;14054;50.108;8.640;2024-01-27T14:21:59;20.10;43.30
26342;DHT22;14054;50.108;8.640;2024-01-27T14:24:25;21.20;42.80
26342;DHT22;14054;50.108;8.640;2024-01-27T14:26:52;20.90;42.60
26342;DHT22;14054;50.108;8.640;2024-01-27T14:29:18;18.90;47.00
26342;DHT22;14054;50.108;8.640;2024-01-27T14:31:43;19.10;47.50
26342;DHT22;14054;50.108;8.640;2024-01-27T14:34:09;17.20;49.90
26342;DHT22;14054;50.108;8.640;2024-01-27T14:36:35;14.80;53.00
26342;DHT22;14054;50.108;8.640;2024-01-27T14:39:01;12.60;59.80
26342;DHT22;14054;50.108;8.640;2024-01-27T14:41:27;12.40;61.80
26342;DHT22;14054;50.108;8.640;2024-01-27T14:43:52;12.20;63.70
26342;DHT22;14054;50.108;8.640;2024-01-27T14:46:18;13.60;62.00
26342;DHT22;14054;50.108;8.640;2024-01-27T14:48:44;13.20;59.30
26342;DHT22;14054;50.108;8.640;2024-01-27T14:51:12;12.40;62.00
26342;DHT22;14054;50.108;8.640;2024-01-27T14:53:38;11.40;64.70
26342;DHT22;14054;50.108;8.640;2024-01-27T14:56:03;10.90;67.00
26342;DHT22;14054;50.108;8.640;2024-01-27T14:58:29;10.40;68.80
26342;DHT22;14054;50.108;8.640;2024-01-27T15:00:54;10.00;70.40
26342;DHT22;14054;50.108;8.640;2024-01-27T15:03:22;9.70;70.90
26342;DHT22;14054;50.108;8.640;2024-01-27T15:05:51;9.50;73.10
26342;DHT22;14054;50.108;8.640;2024-01-27T15:08:17;9.40;74.00
26342;DHT22;14054;50.108;8.640;2024-01-27T15:10:43;9.20;74.90
26342;DHT22;14054;50.108;8.640;2024-01-27T15:13:10;8.90;76.50
26342;DHT22;14054;50.108;8.640;2024-01-27T15:15:36;8.60;78.20
26342;DHT22;14054;50.108;8.640;2024-01-27T15:18:02;8.40;79.30
26342;DHT22;14054;50.108;8.640;2024-01-27T15:20:28;8.40;80.10
26342;DHT22;14054;50.108;8.640;2024-01-27T15:22:54;8.10;81.30
26342;DHT22;14054;50.108;8.640;2024-01-27T15:25:20;8.10;82.40
26342;DHT22;14054;50.108;8.640;2024-01-27T15:27:49;8.10;82.90
26342;DHT22;14054;50.108;8.640;2024-01-27T15:30:16;8.00;81.90
26342;DHT22;14054;50.108;8.640;2024-01-27T15:32:42;8.00;82.70
26342;DHT22;14054;50.108;8.640;2024-01-27T15:35:08;7.90;83.10
26342;DHT22;14054;50.108;8.640;2024-01-27T15:37:33;7.70;84.10
26342;DHT22;14054;50.108;8.640;2024-01-27T15:39:59;7.60;84.90
26342;DHT22;14054;50.108;8.640;2024-01-27T15:42:24;7.60;85.00
26342;DHT22;14054;50.108;8.640;2024-01-27T15:44:50;7.50;85.10
26342;DHT22;14054;50.108;8.640;2024-01-27T15:49:42;7.40;85.00
26342;DHT22;14054;50.108;8.640;2024-01-27T15:52:07;7.40;86.10